createdAt,value
2022-09-09T00:01:53.434Z,76.04
2022-09-09T00:04:28.595Z,75.93
2022-09-09T00:07:05.026Z,76.16
2022-09-09T00:09:41.119Z,76.25
2022-09-09T00:12:13.668Z,76.40
2022-09-09T00:14:49.410Z,76.78
2022-09-09T00:17:26.243Z,77.85
2022-09-09T00:19:59.153Z,78.58
2022-09-09T00:22:29.627Z,78.05
2022-09-09T00:25:00.619Z,77.64
2022-09-09T00:27:34.890Z,78.38
2022-09-09T00:30:14.810Z,78.52
2022-09-09T00:32:45.474Z,78.85
2022-09-09T00:35:20.474Z,79.11
2022-09-09T00:37:52.899Z,79.73
2022-09-09T00:40:27.263Z,79.43
2022-09-09T00:43:09.620Z,79.82
2022-09-09T00:45:58.701Z,80.08
2022-09-09T00:48:37.035Z,80.08
2022-09-09T00:51:11.652Z,79.92
2022-09-09T00:53:56.534Z,80.53
2022-09-09T00:56:31.231Z,80.94
2022-09-09T00:59:08.420Z,81.38
2022-09-09T01:01:36.461Z,81.63
2022-09-09T01:04:12.508Z,81.99
2022-09-09T01:06:40.653Z,81.77
2022-09-09T01:09:17.684Z,82.13
2022-09-09T01:11:54.763Z,82.42
2022-09-09T01:14:34.463Z,82.94
2022-09-09T01:17:06.438Z,82.83
2022-09-09T01:19:46.581Z,82.73
2022-09-09T01:22:24.042Z,82.82
2022-09-09T01:25:12.017Z,82.55
2022-09-09T01:27:43.937Z,82.50
2022-09-09T01:30:13.618Z,82.96
2022-09-09T01:32:44.847Z,83.11
2022-09-09T01:35:17.023Z,83.42
2022-09-09T01:37:44.927Z,83.68
2022-09-09T01:40:12.615Z,83.77
2022-09-09T01:42:41.952Z,84.21
2022-09-09T01:45:10.960Z,84.42
2022-09-09T01:47:38.645Z,84.55
2022-09-09T01:50:07.424Z,84.54
2022-09-09T01:52:38.091Z,84.98
2022-09-09T01:55:07.239Z,85.77
2022-09-09T01:57:48.411Z,85.62
2022-09-09T02:00:17.375Z,85.48
2022-09-09T02:02:57.878Z,85.68
2022-09-09T02:05:32.677Z,86.13
2022-09-09T02:08:07.530Z,86.43
2022-09-09T02:10:42.878Z,86.58
2022-09-09T02:13:14.875Z,86.77
2022-09-09T02:15:49.289Z,86.64
2022-09-09T02:18:24.350Z,86.10
2022-09-09T02:20:53.547Z,85.90
2022-09-09T02:23:21.717Z,86.35
2022-09-09T02:25:52.555Z,86.09
2022-09-09T02:28:26.350Z,85.92
2022-09-09T02:30:56.184Z,85.48
2022-09-09T02:33:28.615Z,84.81
2022-09-09T02:36:04.439Z,84.82
2022-09-09T02:38:38.207Z,83.87
2022-09-09T02:41:07.314Z,83.46
2022-09-09T02:43:36.792Z,83.51
2022-09-09T02:46:14.034Z,83.80
2022-09-09T02:48:52.412Z,83.05
2022-09-09T02:51:26.357Z,83.01
2022-09-09T02:54:02.818Z,82.25
2022-09-09T02:56:34.902Z,82.17
2022-09-09T02:59:06.943Z,82.67
2022-09-09T03:01:36.164Z,82.89
2022-09-09T03:04:05.982Z,83.20
2022-09-09T03:06:33.714Z,83.53
2022-09-09T03:09:02.907Z,83.45
2022-09-09T03:11:31.033Z,83.27
2022-09-09T03:13:58.696Z,82.88
2022-09-09T03:16:27.681Z,82.81
2022-09-09T03:18:55.391Z,83.23
2022-09-09T03:21:23.099Z,83.46
2022-09-09T03:23:50.782Z,83.68
2022-09-09T03:26:18.482Z,83.80
2022-09-09T03:28:46.078Z,83.93
2022-09-09T03:31:13.853Z,84.55
2022-09-09T03:33:43.325Z,84.85
2022-09-09T03:36:11.502Z,84.46
2022-09-09T03:38:39.040Z,84.96
2022-09-09T03:41:08.710Z,84.86
2022-09-09T03:43:37.372Z,84.35
2022-09-09T03:46:05.152Z,84.87
2022-09-09T03:48:32.967Z,84.68
2022-09-09T03:51:03.397Z,84.41
2022-09-09T03:53:31.508Z,84.39
2022-09-09T03:56:00.920Z,84.57
2022-09-09T03:58:29.322Z,84.85
2022-09-09T04:00:58.489Z,84.94
2022-09-09T04:03:28.283Z,84.54
2022-09-09T04:05:57.817Z,84.85
2022-09-09T04:08:27.225Z,84.83
2022-09-09T04:10:59.132Z,84.71
2022-09-09T04:13:27.597Z,84.78
2022-09-09T04:15:56.835Z,85.94
2022-09-09T04:18:25.328Z,86.12
2022-09-09T04:20:54.443Z,86.55
2022-09-09T04:23:22.150Z,87.09
2022-09-09T04:25:52.592Z,87.52
2022-09-09T04:28:22.246Z,88.11
2022-09-09T04:30:49.992Z,87.57
2022-09-09T04:33:18.626Z,87.42
2022-09-09T04:35:47.917Z,87.77
2022-09-09T04:38:15.795Z,87.68
2022-09-09T04:40:44.574Z,87.56
2022-09-09T04:43:14.634Z,87.82
2022-09-09T04:45:42.416Z,87.44
2022-09-09T04:48:10.641Z,87.55
2022-09-09T04:50:38.287Z,87.19
2022-09-09T04:53:06.840Z,86.69
2022-09-09T04:55:35.974Z,86.36
2022-09-09T04:58:06.765Z,86.12
2022-09-09T05:00:37.189Z,85.68
2022-09-09T05:03:06.459Z,85.07
2022-09-09T05:05:35.621Z,85.17
2022-09-09T05:08:04.896Z,84.44
2022-09-09T05:10:32.862Z,84.27
2022-09-09T05:13:00.427Z,84.41
2022-09-09T05:15:28.053Z,83.99
2022-09-09T05:18:01.148Z,83.45
2022-09-09T05:20:29.172Z,83.09
2022-09-09T05:22:57.347Z,82.77
2022-09-09T05:25:26.912Z,82.24
2022-09-09T05:27:55.471Z,82.48
2022-09-09T05:30:25.658Z,82.27
2022-09-09T05:32:53.213Z,82.66
2022-09-09T05:35:22.050Z,81.73
2022-09-09T05:37:49.639Z,81.68
2022-09-09T05:40:17.308Z,81.84
2022-09-09T05:42:44.942Z,82.23
2022-09-09T05:45:12.643Z,82.38
2022-09-09T05:47:40.421Z,82.22
2022-09-09T05:50:08.640Z,82.10
2022-09-09T05:52:37.705Z,81.55
2022-09-09T05:55:06.390Z,81.62
2022-09-09T05:57:34.178Z,81.63
2022-09-09T06:00:02.191Z,81.85
2022-09-09T06:02:29.885Z,81.72
2022-09-09T06:05:00.644Z,81.52
2022-09-09T06:07:28.402Z,81.40
2022-09-09T06:09:57.319Z,81.42
2022-09-09T06:12:24.989Z,81.10
2022-09-09T06:14:52.745Z,81.01
2022-09-09T06:17:20.397Z,80.92
2022-09-09T06:19:48.005Z,80.27
2022-09-09T06:22:15.650Z,78.38
2022-09-09T06:24:43.217Z,76.06
2022-09-09T06:27:14.695Z,74.11
2022-09-09T06:29:42.282Z,69.73
2022-09-09T06:32:10.462Z,63.58
2022-09-09T06:34:38.440Z,62.13
2022-09-09T06:37:07.196Z,63.19
2022-09-09T06:39:34.837Z,64.66
2022-09-09T06:42:02.553Z,65.99
2022-09-09T06:44:35.288Z,67.02
2022-09-09T06:47:03.270Z,68.13
2022-09-09T06:49:30.871Z,68.28
2022-09-09T06:51:58.477Z,67.47
2022-09-09T06:54:26.676Z,67.19
2022-09-09T06:56:54.431Z,67.92
2022-09-09T06:59:22.373Z,67.82
2022-09-09T07:01:55.749Z,67.44
2022-09-09T07:04:23.877Z,68.36
2022-09-09T07:06:53.316Z,67.58
2022-09-09T07:09:21.017Z,65.22
2022-09-09T07:11:51.567Z,63.89
2022-09-09T07:14:19.098Z,64.37
2022-09-09T07:16:47.699Z,65.22
2022-09-09T07:19:17.247Z,65.37
2022-09-09T07:21:45.255Z,66.91
2022-09-09T07:24:13.846Z,66.35
2022-09-09T07:26:42.351Z,68.40
2022-09-09T07:29:10.754Z,69.36
2022-09-09T07:31:40.861Z,70.22
2022-09-09T07:34:09.276Z,71.17
2022-09-09T07:36:40.176Z,70.92
2022-09-09T07:39:10.891Z,71.76
2022-09-09T07:41:40.741Z,71.64
2022-09-09T07:44:10.333Z,72.56
2022-09-09T07:46:40.314Z,72.15
2022-09-09T07:49:08.025Z,70.86
2022-09-09T07:51:40.231Z,71.29
2022-09-09T07:54:10.381Z,69.33
2022-09-09T07:56:40.245Z,69.76
2022-09-09T07:59:09.622Z,69.64
2022-09-09T08:01:40.342Z,69.88
2022-09-09T08:04:10.514Z,70.99
2022-09-09T08:06:41.374Z,71.72
2022-09-09T08:09:10.374Z,72.39
2022-09-09T08:11:39.313Z,73.18
2022-09-09T08:14:08.544Z,73.50
2022-09-09T08:16:38.356Z,72.39
2022-09-09T08:19:08.168Z,71.22
2022-09-09T08:21:39.217Z,70.56
2022-09-09T08:24:09.012Z,68.71
2022-09-09T08:26:38.871Z,67.33
2022-09-09T08:29:08.851Z,67.14
2022-09-09T08:31:38.063Z,65.66
2022-09-09T08:34:06.830Z,64.99
2022-09-09T08:36:36.909Z,65.01
2022-09-09T08:39:06.715Z,63.77
2022-09-09T08:42:01.492Z,62.64
2022-09-09T08:44:44.401Z,63.41
2022-09-09T08:47:31.771Z,62.81
2022-09-09T08:50:13.625Z,63.18
2022-09-09T08:52:50.895Z,61.79
2022-09-09T08:55:28.922Z,61.34
2022-09-09T08:58:02.029Z,62.00
2022-09-09T09:00:37.564Z,62.52
2022-09-09T09:03:11.660Z,62.77
2022-09-09T09:05:47.615Z,63.69
2022-09-09T09:08:26.466Z,63.84
2022-09-09T09:10:59.167Z,64.40
2022-09-09T09:13:41.670Z,63.32
2022-09-09T09:16:20.305Z,63.42
2022-09-09T09:18:48.120Z,62.98
2022-09-09T09:21:22.643Z,62.77
2022-09-09T09:23:57.857Z,62.39
2022-09-09T09:26:27.829Z,60.88
2022-09-09T09:28:58.408Z,60.02
2022-09-09T09:31:27.763Z,61.79
2022-09-09T09:33:59.496Z,63.48
2022-09-09T09:36:36.880Z,65.59
2022-09-09T09:41:55.243Z,65.67
2022-09-09T09:44:29.370Z,66.29
2022-09-09T09:47:08.519Z,66.37
2022-09-09T09:49:36.419Z,67.29
2022-09-09T09:52:05.468Z,68.72
2022-09-09T09:54:36.947Z,68.54
2022-09-09T09:57:12.575Z,69.83
2022-09-09T09:59:41.749Z,70.83
2022-09-09T10:02:22.019Z,72.34
2022-09-09T10:04:49.793Z,73.19
2022-09-09T10:07:21.023Z,71.98
2022-09-09T10:09:54.131Z,71.39
2022-09-09T10:12:32.657Z,70.85
2022-09-09T10:15:07.852Z,70.88
2022-09-09T10:17:43.028Z,70.88
2022-09-09T10:20:26.716Z,70.53
2022-09-09T10:23:05.173Z,69.99
2022-09-09T10:25:52.701Z,67.26
2022-09-09T10:28:48.297Z,64.25
2022-09-09T10:31:26.102Z,63.04
2022-09-09T10:34:04.970Z,63.78
2022-09-09T10:36:32.686Z,63.13
2022-09-09T10:39:05.074Z,61.75
2022-09-09T10:41:47.236Z,62.24
2022-09-09T10:44:25.139Z,60.97
2022-09-09T10:47:30.211Z,61.92
2022-09-09T10:50:14.472Z,61.21
2022-09-09T10:52:56.234Z,63.09
2022-09-09T10:55:30.086Z,62.15
2022-09-09T10:58:00.350Z,63.29
2022-09-09T11:00:39.813Z,65.49
2022-09-09T11:03:13.556Z,67.74
2022-09-09T11:05:45.808Z,69.33
2022-09-09T11:08:19.035Z,70.40
2022-09-09T11:10:53.505Z,72.79
2022-09-09T11:13:27.140Z,72.51
2022-09-09T11:16:00.798Z,70.30
2022-09-09T11:18:33.750Z,68.16
2022-09-09T11:21:05.354Z,67.94
2022-09-09T11:23:42.251Z,69.13
2022-09-09T11:26:17.322Z,68.08
2022-09-09T11:29:04.093Z,67.71
2022-09-09T11:31:46.502Z,66.98
2022-09-09T11:34:41.495Z,65.06
2022-09-09T11:37:26.397Z,64.44
2022-09-09T11:40:10.745Z,63.78
2022-09-09T11:42:39.023Z,62.22
2022-09-09T11:45:22.603Z,61.94
2022-09-09T11:47:55.554Z,59.08
2022-09-09T11:50:38.478Z,58.21
2022-09-09T11:53:28.594Z,57.38
2022-09-09T11:56:05.627Z,55.36
2022-09-09T11:58:39.888Z,55.79
2022-09-09T12:01:29.151Z,57.41
2022-09-09T12:04:09.093Z,59.44
2022-09-09T12:06:47.422Z,59.24
2022-09-09T12:09:25.195Z,60.09
2022-09-09T12:11:53.089Z,59.97
2022-09-09T12:14:36.190Z,60.98
2022-09-09T12:17:12.552Z,60.30
2022-09-09T12:19:40.129Z,58.38
2022-09-09T12:22:19.366Z,57.40
2022-09-09T12:24:54.730Z,57.33
2022-09-09T12:27:27.952Z,57.22
2022-09-09T12:30:02.402Z,57.65
2022-09-09T12:32:31.075Z,57.08
2022-09-09T12:35:02.782Z,57.49
2022-09-09T12:37:37.052Z,58.00
2022-09-09T12:40:06.612Z,58.98
2022-09-09T12:42:39.157Z,58.67
2022-09-09T12:45:19.613Z,59.32
2022-09-09T12:47:51.743Z,59.93
2022-09-09T12:50:23.143Z,60.24
2022-09-09T12:52:54.686Z,60.00
2022-09-09T12:55:26.144Z,72.69
2022-09-09T12:57:54.671Z,77.75
2022-09-09T13:00:25.075Z,79.98
2022-09-09T13:02:54.683Z,82.17
2022-09-09T13:05:25.173Z,82.68
2022-09-09T13:08:03.755Z,82.22
2022-09-09T13:10:43.280Z,80.33
2022-09-09T13:13:23.143Z,80.78
2022-09-09T13:15:53.509Z,78.69
2022-09-09T13:18:25.194Z,77.57
2022-09-09T13:20:53.616Z,76.07
2022-09-09T13:23:23.691Z,77.25
2022-09-09T13:25:59.190Z,76.14
2022-09-09T13:28:28.511Z,76.49
2022-09-09T13:31:03.764Z,77.48
2022-09-09T13:33:34.667Z,77.50
2022-09-09T13:36:06.036Z,76.01
2022-09-09T13:38:37.558Z,75.02
2022-09-09T13:41:07.143Z,73.74
2022-09-09T13:43:39.431Z,74.64
2022-09-09T13:46:26.857Z,72.59
2022-09-09T13:48:59.068Z,70.51
2022-09-09T13:51:35.466Z,70.01
2022-09-09T13:54:04.667Z,68.81
2022-09-09T13:56:32.764Z,67.65
2022-09-09T13:59:00.406Z,67.52
2022-09-09T14:01:29.655Z,65.52
2022-09-09T14:03:57.541Z,64.45
2022-09-09T14:06:25.397Z,65.05
2022-09-09T14:08:53.399Z,62.87
2022-09-09T14:11:23.129Z,66.61
2022-09-09T14:13:51.424Z,67.09
2022-09-09T14:16:19.434Z,68.23
2022-09-09T14:18:47.993Z,69.23
2022-09-09T14:21:16.649Z,70.15
2022-09-09T14:23:44.277Z,71.72
2022-09-09T14:26:11.913Z,71.54
2022-09-09T14:28:56.706Z,71.01
2022-09-09T14:31:24.660Z,72.83
2022-09-09T14:33:55.460Z,73.51
2022-09-09T14:36:23.788Z,72.80
2022-09-09T14:38:51.649Z,72.98
2022-09-09T14:41:21.055Z,72.41
2022-09-09T14:43:50.588Z,72.38
2022-09-09T14:46:20.656Z,71.04
2022-09-09T14:48:49.443Z,70.70
2022-09-09T14:51:18.770Z,71.11
2022-09-09T14:53:47.545Z,69.46
2022-09-09T14:56:17.378Z,69.14
2022-09-09T14:58:45.753Z,69.36
2022-09-09T15:01:17.017Z,68.65
2022-09-09T15:03:51.022Z,67.29
2022-09-09T15:06:19.237Z,67.13
2022-09-09T15:08:50.425Z,66.72
2022-09-09T15:11:18.170Z,66.53
2022-09-09T15:13:46.193Z,66.19
2022-09-09T15:16:17.543Z,66.01
2022-09-09T15:18:47.214Z,65.92
2022-09-09T15:21:16.520Z,65.55
2022-09-09T15:23:44.773Z,66.64
2022-09-09T15:26:13.086Z,68.25
2022-09-09T15:28:40.781Z,67.09
2022-09-09T15:31:11.845Z,67.13
2022-09-09T15:33:40.827Z,68.05
2022-09-09T15:36:15.758Z,68.02
2022-09-09T15:38:44.892Z,67.24
2022-09-09T15:41:13.202Z,66.72
2022-09-09T15:43:41.328Z,65.47
2022-09-09T15:46:27.091Z,65.71
2022-09-09T15:48:57.987Z,65.37
2022-09-09T15:51:44.011Z,65.59
2022-09-09T15:54:14.071Z,66.50
2022-09-09T15:56:42.383Z,67.99
2022-09-09T15:59:09.994Z,68.12
2022-09-09T16:01:38.798Z,69.29
2022-09-09T16:04:08.186Z,69.13
2022-09-09T16:06:36.206Z,69.46
2022-09-09T16:09:06.319Z,69.55
2022-09-09T16:11:36.741Z,70.24
2022-09-09T16:14:06.223Z,70.34
2022-09-09T16:16:36.065Z,70.20
2022-09-09T16:19:10.430Z,70.61
2022-09-09T16:21:40.923Z,71.42
2022-09-09T16:24:10.062Z,71.26
2022-09-09T16:26:40.069Z,71.14
2022-09-09T16:29:07.896Z,71.91
2022-09-09T16:31:35.606Z,71.43
2022-09-09T16:34:04.120Z,72.15
2022-09-09T16:36:35.789Z,72.55
2022-09-09T16:39:05.723Z,72.60
2022-09-09T16:41:34.312Z,71.84
2022-09-09T16:44:05.391Z,71.07
2022-09-09T16:46:36.379Z,71.49
2022-09-09T16:49:06.778Z,71.81
2022-09-09T16:51:37.931Z,72.23
2022-09-09T16:54:08.461Z,72.69
2022-09-09T16:56:38.766Z,72.79
2022-09-09T16:59:08.566Z,72.62
2022-09-09T17:01:38.832Z,72.62
2022-09-09T17:04:08.591Z,72.50
2022-09-09T17:06:38.929Z,73.22
2022-09-09T17:09:08.695Z,73.81
2022-09-09T17:11:39.285Z,74.49
2022-09-09T17:14:09.694Z,75.50
2022-09-09T17:16:37.939Z,76.15
2022-09-09T17:19:06.205Z,77.30
2022-09-09T17:21:34.634Z,77.56
2022-09-09T17:24:03.856Z,77.62
2022-09-09T17:26:34.003Z,78.47
2022-09-09T17:29:03.234Z,79.19
2022-09-09T17:31:31.689Z,78.30
2022-09-09T17:34:00.311Z,79.10
2022-09-09T17:36:31.070Z,79.53
2022-09-09T17:39:00.641Z,79.23
2022-09-09T17:41:31.477Z,79.35
2022-09-09T17:43:59.730Z,79.34
2022-09-09T17:46:31.181Z,79.21
2022-09-09T17:49:01.929Z,79.78
2022-09-09T17:51:32.019Z,79.98
2022-09-09T17:54:02.067Z,79.89
2022-09-09T17:56:33.613Z,80.09
2022-09-09T17:59:03.513Z,80.46
2022-09-09T18:01:33.171Z,80.24
2022-09-09T18:04:03.155Z,80.90
2022-09-09T18:06:34.450Z,80.59
2022-09-09T18:09:03.698Z,81.17
2022-09-09T18:11:35.274Z,80.94
2022-09-09T18:14:04.671Z,81.13
2022-09-09T18:16:36.006Z,81.57
2022-09-09T18:19:04.969Z,81.26
2022-09-09T18:21:34.079Z,81.13
2022-09-09T18:24:03.176Z,80.70
2022-09-09T18:26:33.607Z,81.58
2022-09-09T18:29:04.221Z,81.84
2022-09-09T18:31:32.154Z,81.81
2022-09-09T18:34:03.669Z,81.86
2022-09-09T18:36:34.004Z,82.38
2022-09-09T18:39:03.575Z,82.81
2022-09-09T18:41:34.785Z,82.82
2022-09-09T18:44:06.197Z,83.10
2022-09-09T18:46:35.576Z,82.94
2022-09-09T18:49:04.631Z,83.21
2022-09-09T18:51:33.485Z,83.38
2022-09-09T18:54:04.457Z,83.91
2022-09-09T18:56:33.347Z,84.26
2022-09-09T18:59:03.194Z,83.45
2022-09-09T19:01:31.776Z,83.96
2022-09-09T19:03:59.858Z,83.61
2022-09-09T19:06:30.481Z,83.61
2022-09-09T19:09:02.840Z,83.43
2022-09-09T19:11:30.903Z,83.08
2022-09-09T19:14:04.558Z,83.61
2022-09-09T19:16:34.318Z,83.17
2022-09-09T19:19:04.312Z,83.97
2022-09-09T19:21:35.574Z,84.03
2022-09-09T19:24:06.402Z,84.09
2022-09-09T19:26:40.394Z,84.46
2022-09-09T19:29:10.065Z,83.55
2022-09-09T19:31:38.823Z,83.96
2022-09-09T19:34:06.597Z,83.78
2022-09-09T19:36:34.210Z,84.69
2022-09-09T19:39:03.285Z,84.55
2022-09-09T19:41:32.468Z,85.28
2022-09-09T19:44:01.924Z,85.50
2022-09-09T19:46:32.419Z,86.51
2022-09-09T19:49:01.720Z,86.56
2022-09-09T19:51:30.714Z,86.80
2022-09-09T19:54:00.662Z,87.11
2022-09-09T19:56:29.356Z,88.45
2022-09-09T19:58:57.941Z,89.43
2022-09-09T20:01:27.452Z,90.06
2022-09-09T20:03:58.787Z,90.44
2022-09-09T20:06:29.188Z,90.78
2022-09-09T20:08:57.851Z,91.27
2022-09-09T20:11:26.275Z,91.92
2022-09-09T20:13:54.190Z,91.80
2022-09-09T20:16:24.493Z,91.93
2022-09-09T20:18:54.092Z,91.46
2022-09-09T20:21:26.105Z,91.95
2022-09-09T20:23:55.751Z,92.21
2022-09-09T20:26:26.015Z,91.38
2022-09-09T20:28:54.724Z,91.27
2022-09-09T20:31:24.838Z,91.36
2022-09-09T20:33:53.351Z,91.95
2022-09-09T20:36:27.838Z,91.40
2022-09-09T20:38:58.012Z,91.36
2022-09-09T20:41:28.428Z,90.71
2022-09-09T20:43:57.965Z,91.76
2022-09-09T20:46:28.152Z,92.17
2022-09-09T20:49:00.817Z,92.43
2022-09-09T20:51:33.730Z,92.21
2022-09-09T20:54:03.803Z,91.91
2022-09-09T20:56:33.876Z,91.78
2022-09-09T20:59:02.689Z,91.70
2022-09-09T21:01:30.733Z,91.97
2022-09-09T21:03:58.570Z,91.69
2022-09-09T21:06:26.175Z,92.48
2022-09-09T21:08:55.147Z,93.04
2022-09-09T21:11:22.746Z,92.82
2022-09-09T21:13:51.138Z,92.74
2022-09-09T21:16:21.131Z,92.99
2022-09-09T21:18:49.738Z,92.79
2022-09-09T21:21:19.406Z,93.46
2022-09-09T21:23:47.054Z,93.23
2022-09-09T21:26:17.785Z,93.96
2022-09-09T21:28:45.334Z,93.84
2022-09-09T21:31:15.037Z,94.90
2022-09-09T21:33:42.981Z,95.29
2022-09-09T21:36:12.443Z,95.12
2022-09-09T21:38:41.361Z,94.96
2022-09-09T21:41:12.786Z,94.85
2022-09-09T21:43:42.530Z,94.79
2022-09-09T21:46:10.906Z,95.01
2022-09-09T21:48:38.824Z,95.13
2022-09-09T21:51:08.830Z,94.68
2022-09-09T21:53:36.721Z,94.63
2022-09-09T21:56:07.159Z,95.25
2022-09-09T21:58:35.771Z,96.11
2022-09-09T22:01:10.254Z,95.69
2022-09-09T22:03:39.018Z,94.67
2022-09-09T22:06:08.412Z,94.91
2022-09-09T22:08:36.967Z,94.79
2022-09-09T22:11:10.483Z,94.36
2022-09-09T22:13:38.465Z,94.94
2022-09-09T22:16:09.297Z,95.35
2022-09-09T22:18:37.189Z,95.39
2022-09-09T22:21:07.277Z,95.47
2022-09-09T22:23:36.401Z,95.43
2022-09-09T22:26:04.743Z,95.38
2022-09-09T22:28:32.828Z,95.57
2022-09-09T22:31:00.816Z,95.17
2022-09-09T22:33:30.284Z,95.23
2022-09-09T22:35:57.815Z,94.96
2022-09-09T22:38:25.690Z,94.92
2022-09-09T22:40:53.910Z,95.05
2022-09-09T22:43:23.405Z,95.51
2022-09-09T22:45:52.253Z,96.07
2022-09-09T22:48:19.794Z,96.28
2022-09-09T22:50:48.701Z,96.85
2022-09-09T22:53:18.571Z,96.20
2022-09-09T22:55:58.476Z,96.09
2022-09-09T22:58:26.709Z,95.82
2022-09-09T23:00:58.622Z,96.34
2022-09-09T23:03:26.393Z,96.47
2022-09-09T23:05:57.418Z,96.57
2022-09-09T23:08:26.595Z,96.30
2022-09-09T23:10:55.455Z,96.95
2022-09-09T23:13:24.020Z,97.33
2022-09-09T23:15:52.231Z,97.58
2022-09-09T23:18:20.240Z,97.65
2022-09-09T23:21:00.392Z,97.64
2022-09-09T23:23:28.532Z,98.11
2022-09-09T23:25:56.241Z,97.68
2022-09-09T23:28:23.766Z,97.16
2022-09-09T23:30:51.530Z,96.16
2022-09-09T23:33:19.140Z,96.04
2022-09-09T23:35:46.927Z,96.44
2022-09-09T23:38:15.860Z,96.29
2022-09-09T23:40:47.885Z,96.17
2022-09-09T23:43:16.085Z,96.15
2022-09-09T23:45:43.869Z,96.12
2022-09-09T23:48:11.497Z,96.09
2022-09-09T23:50:39.149Z,95.82
2022-09-09T23:53:08.343Z,96.04
2022-09-09T23:55:37.355Z,95.57
2022-09-09T23:58:05.591Z,95.38
